createdAt,value
2019-04-25T00:02:12.474Z,4.17
2019-04-25T00:04:44.678Z,2.20
2019-04-25T00:07:16.321Z,3.00
2019-04-25T00:09:51.921Z,1.65
2019-04-25T00:12:23.794Z,2.83
2019-04-25T00:14:56.640Z,2.12
2019-04-25T00:17:31.481Z,2.02
2019-04-25T00:20:03.117Z,2.00
2019-04-25T00:22:54.511Z,2.70
2019-04-25T00:25:45.862Z,1.82
2019-04-25T00:28:16.522Z,2.52
2019-04-25T00:30:48.072Z,4.60
2019-04-25T00:33:21.584Z,2.30
2019-04-25T00:35:52.884Z,2.22
2019-04-25T00:38:25.557Z,1.65
2019-04-25T00:40:56.996Z,1.90
2019-04-25T00:43:28.245Z,2.95
2019-04-25T00:45:59.474Z,3.72
2019-04-25T00:48:31.757Z,1.92
2019-04-25T00:51:03.098Z,4.17
2019-04-25T00:53:34.239Z,3.65
2019-04-25T00:56:05.639Z,2.33
2019-04-25T00:58:44.416Z,2.80
2019-04-25T01:01:43.014Z,4.58
2019-04-25T01:04:15.776Z,4.62
2019-04-25T01:06:47.544Z,3.80
2019-04-25T01:14:21.799Z,2.60
2019-04-25T01:16:53.907Z,3.33
2019-04-25T01:19:25.478Z,1.72
2019-04-25T01:21:56.635Z,4.67
2019-04-25T01:24:28.400Z,1.35
2019-04-25T01:26:59.937Z,3.37
2019-04-25T01:29:31.095Z,1.17
2019-04-25T01:32:04.640Z,3.50
2019-04-25T01:34:44.732Z,6.08
2019-04-25T01:37:34.043Z,4.00
2019-04-25T01:40:23.621Z,5.47
2019-04-25T01:43:11.667Z,3.62
2019-04-25T01:45:43.811Z,3.80
2019-04-25T01:48:15.115Z,3.05
2019-04-25T01:50:47.006Z,4.05
2019-04-25T01:53:18.154Z,3.20
2019-04-25T01:55:56.131Z,2.95
2019-04-25T01:58:23.649Z,3.50
2019-04-25T02:00:56.154Z,2.25
2019-04-25T02:03:28.050Z,5.10
2019-04-25T02:06:00.494Z,3.87
2019-04-25T02:08:31.659Z,3.35
2019-04-25T02:11:15.735Z,6.40
2019-04-25T02:13:47.169Z,4.58
2019-04-25T02:16:18.304Z,2.62
2019-04-25T02:18:49.748Z,2.02
2019-04-25T02:21:21.266Z,2.40
2019-04-25T02:23:55.171Z,2.83
2019-04-25T02:26:25.581Z,3.33
2019-04-25T02:28:57.319Z,2.80
2019-04-25T02:34:00.740Z,3.87
2019-04-25T02:36:34.580Z,3.90
2019-04-25T02:39:11.031Z,4.58
2019-04-25T02:41:44.475Z,3.08
2019-04-25T02:44:16.414Z,5.15
2019-04-25T02:49:39.969Z,3.43
2019-04-25T02:52:27.604Z,5.17
2019-04-25T02:55:00.391Z,4.40
2019-04-25T02:57:32.087Z,3.42
2019-04-25T03:00:06.694Z,5.62
2019-04-25T03:02:37.865Z,6.10
2019-04-25T03:05:10.051Z,4.67
2019-04-25T03:07:41.451Z,4.83
2019-04-25T03:10:14.874Z,10.95
2019-04-25T03:12:45.665Z,3.08
2019-04-25T03:15:17.298Z,4.83
2019-04-25T03:17:48.455Z,5.17
2019-04-25T03:20:38.549Z,3.40
2019-04-25T03:23:27.152Z,5.60
2019-04-25T03:25:59.143Z,5.15
2019-04-25T03:28:30.779Z,5.60
2019-04-25T03:31:08.636Z,5.60
2019-04-25T03:33:38.270Z,5.05
2019-04-25T03:36:09.340Z,4.65
2019-04-25T03:38:40.759Z,5.55
2019-04-25T03:41:13.199Z,4.90
2019-04-25T03:43:45.454Z,3.55
2019-04-25T03:46:16.883Z,3.30
2019-04-25T03:48:49.978Z,4.33
2019-04-25T03:51:21.395Z,4.08
2019-04-25T03:53:53.568Z,5.58
2019-04-25T03:56:25.578Z,5.42
2019-04-25T04:01:26.701Z,5.47
2019-04-25T04:03:58.167Z,8.03
2019-04-25T04:06:29.383Z,6.55
2019-04-25T04:09:01.045Z,6.92
2019-04-25T04:11:34.083Z,5.87
2019-04-25T04:14:06.805Z,5.20
2019-04-25T04:16:41.747Z,5.22
2019-04-25T04:19:14.770Z,4.35
2019-04-25T04:22:05.433Z,7.25
2019-04-25T04:24:41.904Z,4.58
2019-04-25T04:27:16.789Z,7.42
2019-04-25T04:29:48.100Z,4.12
2019-04-25T04:32:19.618Z,5.28
2019-04-25T04:34:51.138Z,4.97
2019-04-25T04:37:23.634Z,5.97
2019-04-25T04:39:54.935Z,4.75
2019-04-25T04:42:27.057Z,6.03
2019-04-25T04:44:58.664Z,7.45
2019-04-25T04:47:30.182Z,8.08
2019-04-25T04:50:01.751Z,6.97
2019-04-25T04:52:34.087Z,4.70
2019-04-25T04:55:08.573Z,5.30
2019-04-25T04:57:38.622Z,5.15
2019-04-25T05:00:10.950Z,7.20
2019-04-25T05:02:57.335Z,9.75
2019-04-25T05:05:59.593Z,8.75
2019-04-25T05:11:06.291Z,6.00
2019-04-25T05:13:37.445Z,8.50
2019-04-25T05:16:09.606Z,8.38
2019-04-25T05:18:41.112Z,8.30
2019-04-25T05:21:13.287Z,6.42
2019-04-25T05:23:45.211Z,7.92
2019-04-25T05:26:17.183Z,6.72
2019-04-25T05:28:48.425Z,7.30
2019-04-25T05:31:41.278Z,6.53
2019-04-25T05:34:14.556Z,5.72
2019-04-25T05:36:45.579Z,5.28
2019-04-25T05:39:19.163Z,4.12
2019-04-25T05:42:25.663Z,3.47
2019-04-25T05:44:59.618Z,10.25
2019-04-25T05:47:31.143Z,6.87
2019-04-25T05:50:04.159Z,4.42
2019-04-25T05:52:35.719Z,4.35
2019-04-25T05:55:07.216Z,6.05
2019-04-25T05:57:47.754Z,5.62
2019-04-25T06:00:13.466Z,6.33
2019-04-25T06:02:46.192Z,7.75
2019-04-25T06:05:19.922Z,4.80
2019-04-25T06:07:51.437Z,6.90
2019-04-25T06:10:37.519Z,3.83
2019-04-25T06:13:30.593Z,6.30
2019-04-25T06:16:16.743Z,5.53
2019-04-25T06:19:20.862Z,7.20
2019-04-25T06:21:53.573Z,5.22
2019-04-25T06:24:45.099Z,5.85
2019-04-25T06:27:35.373Z,5.20
2019-04-25T06:30:27.093Z,4.65
2019-04-25T06:32:58.374Z,4.28
2019-04-25T06:35:29.651Z,4.50
2019-04-25T06:38:00.822Z,2.72
2019-04-25T06:40:32.980Z,5.75
2019-04-25T06:43:05.181Z,4.75
2019-04-25T06:45:55.402Z,4.60
2019-04-25T06:48:54.449Z,4.12
2019-04-25T06:51:46.134Z,4.65
2019-04-25T06:54:17.425Z,3.90
2019-04-25T06:56:48.945Z,2.62
2019-04-25T06:59:20.244Z,2.85
2019-04-25T07:01:51.459Z,2.62
2019-04-25T07:04:25.245Z,3.17
2019-04-25T07:06:55.866Z,4.00
2019-04-25T07:09:29.584Z,3.75
2019-04-25T07:12:00.798Z,3.45
2019-04-25T07:17:04.245Z,3.65
2019-04-25T07:19:35.873Z,3.27
2019-04-25T07:22:07.110Z,6.20
2019-04-25T07:24:38.426Z,2.65
2019-04-25T07:27:27.310Z,4.55
2019-04-25T07:30:13.534Z,3.05
2019-04-25T07:32:48.894Z,4.33
2019-04-25T07:35:21.252Z,4.17
2019-04-25T07:37:54.040Z,8.78
2019-04-25T07:40:27.375Z,3.02
2019-04-25T07:42:58.682Z,5.58
2019-04-25T07:45:30.796Z,6.30
2019-04-25T07:48:03.995Z,4.00
2019-04-25T07:50:35.482Z,5.53
2019-04-25T07:53:06.667Z,7.33
2019-04-25T07:55:38.845Z,2.90
2019-04-25T07:58:10.543Z,3.25
2019-04-25T08:00:43.924Z,4.55
2019-04-25T08:03:15.976Z,3.67
2019-04-25T08:08:17.870Z,4.03
2019-04-25T08:13:36.197Z,3.08
2019-04-25T08:16:08.178Z,3.17
2019-04-25T08:18:41.414Z,2.00
2019-04-25T08:21:12.885Z,3.50
2019-04-25T08:23:44.482Z,1.98
2019-04-25T08:26:15.651Z,5.22
2019-04-25T08:28:54.393Z,4.80
2019-04-25T08:31:20.134Z,2.80
2019-04-25T08:33:53.579Z,4.00
2019-04-25T08:36:25.161Z,3.02
2019-04-25T08:38:56.417Z,3.02
2019-04-25T08:41:28.341Z,2.15
2019-04-25T08:46:31.303Z,6.23
2019-04-25T08:49:34.749Z,2.83
2019-04-25T08:52:06.411Z,3.33
2019-04-25T08:54:47.781Z,5.25
2019-04-25T08:57:28.146Z,5.30
2019-04-25T09:00:06.148Z,3.00
2019-04-25T09:02:46.338Z,1.85
2019-04-25T09:05:27.654Z,3.52
2019-04-25T09:07:59.315Z,3.45
2019-04-25T09:10:30.806Z,3.17
2019-04-25T09:13:03.194Z,2.67
2019-04-25T09:15:38.069Z,3.92
2019-04-25T09:18:09.622Z,3.05
2019-04-25T09:20:42.133Z,4.22
2019-04-25T09:23:14.003Z,5.62
2019-04-25T09:25:46.215Z,1.98
2019-04-25T09:28:17.502Z,3.10
2019-04-25T09:30:48.776Z,2.40
2019-04-25T09:33:23.177Z,2.92
2019-04-25T09:35:55.991Z,2.40
2019-04-25T09:38:27.225Z,3.33
2019-04-25T09:40:58.976Z,4.40
2019-04-25T09:43:30.733Z,3.80
2019-04-25T09:51:45.776Z,4.60
2019-04-25T09:54:36.146Z,2.98
2019-04-25T09:57:26.727Z,2.22
2019-04-25T09:59:57.985Z,2.90
2019-04-25T10:02:29.288Z,3.42
2019-04-25T10:05:00.911Z,2.67
2019-04-25T10:07:33.171Z,2.85
2019-04-25T10:10:06.441Z,4.37
2019-04-25T10:12:38.794Z,3.22
2019-04-25T10:15:54.586Z,4.62
2019-04-25T10:18:26.301Z,3.33
2019-04-25T10:20:57.474Z,2.10
2019-04-25T10:23:29.931Z,4.08
2019-04-25T10:26:01.297Z,2.87
2019-04-25T10:28:33.624Z,5.37
2019-04-25T10:31:04.939Z,4.65
2019-04-25T10:33:36.877Z,4.42
2019-04-25T10:36:11.587Z,2.67
2019-04-25T10:38:44.426Z,2.35
2019-04-25T10:41:16.209Z,2.40
2019-04-25T10:43:48.350Z,2.70
2019-04-25T10:46:21.706Z,2.12
2019-04-25T10:48:55.887Z,3.05
2019-04-25T10:51:26.595Z,4.78
2019-04-25T10:53:58.198Z,3.25
2019-04-25T10:56:30.094Z,1.50
2019-04-25T11:01:33.761Z,4.05
2019-04-25T11:04:14.055Z,7.03
2019-04-25T11:06:45.643Z,2.85
2019-04-25T11:09:24.290Z,3.58
2019-04-25T11:11:55.501Z,2.95
2019-04-25T11:14:30.561Z,5.20
2019-04-25T11:17:02.462Z,7.12
2019-04-25T11:19:34.913Z,5.15
2019-04-25T11:22:07.403Z,2.10
2019-04-25T11:24:38.994Z,1.98
2019-04-25T11:27:10.499Z,2.58
2019-04-25T11:29:44.731Z,2.55
2019-04-25T11:32:19.772Z,6.65
2019-04-25T11:34:53.504Z,3.70
2019-04-25T11:37:27.526Z,2.98
2019-04-25T11:40:08.347Z,6.67
2019-04-25T11:42:39.658Z,3.87
2019-04-25T11:45:12.153Z,4.53
2019-04-25T11:47:45.947Z,3.83
2019-04-25T11:50:17.212Z,2.05
2019-04-25T11:52:48.783Z,6.42
2019-04-25T11:55:20.323Z,6.55
2019-04-25T11:57:52.637Z,4.37
2019-04-25T12:00:27.691Z,2.45
2019-04-25T12:02:59.095Z,2.20
2019-04-25T12:05:30.322Z,3.22
2019-04-25T12:08:01.805Z,3.17
2019-04-25T12:10:34.687Z,3.20
2019-04-25T12:13:06.803Z,2.77
2019-04-25T12:15:38.119Z,2.87
2019-04-25T12:18:09.698Z,3.92
2019-04-25T12:20:40.993Z,4.90
2019-04-25T12:23:12.218Z,2.45
2019-04-25T12:25:45.348Z,4.12
2019-04-25T12:28:16.899Z,3.42
2019-04-25T12:30:49.299Z,5.28
2019-04-25T12:33:21.621Z,4.42
2019-04-25T12:35:54.177Z,3.20
2019-04-25T12:38:26.180Z,4.92
2019-04-25T12:40:57.335Z,3.98
2019-04-25T12:43:30.627Z,3.87
2019-04-25T12:46:14.242Z,2.37
2019-04-25T12:48:46.031Z,2.98
2019-04-25T12:53:48.266Z,1.70
2019-04-25T12:56:20.421Z,3.55
2019-04-25T12:58:53.794Z,3.25
2019-04-25T13:01:25.980Z,4.62
2019-04-25T13:03:57.296Z,2.08
2019-04-25T13:06:28.817Z,3.92
2019-04-25T13:09:01.298Z,3.45
2019-04-25T13:11:34.817Z,2.90
2019-04-25T13:16:36.487Z,3.10
2019-04-25T13:19:16.493Z,1.95
2019-04-25T13:21:41.388Z,3.58
2019-04-25T13:26:49.138Z,3.75
2019-04-25T13:29:31.374Z,3.35
2019-04-25T13:32:15.623Z,3.70
2019-04-25T13:34:47.504Z,2.75
2019-04-25T13:39:48.976Z,2.20
2019-04-25T13:42:23.171Z,3.27
2019-04-25T13:44:54.741Z,2.62
2019-04-25T13:47:42.360Z,2.72
2019-04-25T13:50:16.557Z,2.30
2019-04-25T13:55:17.710Z,3.12
2019-04-25T13:57:48.976Z,2.30
2019-04-25T14:00:24.734Z,3.37
2019-04-25T14:02:55.960Z,3.08
2019-04-25T14:05:28.272Z,2.92
2019-04-25T14:07:59.545Z,4.20
2019-04-25T14:10:30.736Z,4.78
2019-04-25T14:13:03.427Z,2.95
2019-04-25T14:15:37.281Z,2.87
2019-04-25T14:18:19.180Z,2.95
2019-04-25T14:20:54.974Z,5.17
2019-04-25T14:23:26.186Z,3.62
2019-04-25T14:25:57.639Z,2.25
2019-04-25T14:28:31.527Z,3.92
2019-04-25T14:31:02.255Z,3.35
2019-04-25T14:33:35.345Z,3.75
2019-04-25T14:36:06.678Z,2.72
2019-04-25T14:38:37.883Z,2.45
2019-04-25T14:41:10.667Z,3.17
2019-04-25T14:43:42.117Z,4.33
2019-04-25T14:46:13.301Z,4.62
2019-04-25T14:48:44.483Z,5.45
2019-04-25T14:51:16.152Z,6.05
2019-04-25T14:53:48.009Z,5.15
2019-04-25T14:58:59.578Z,2.67
2019-04-25T15:01:43.839Z,5.12
2019-04-25T15:04:04.192Z,4.22
2019-04-25T15:06:36.068Z,8.15
2019-04-25T15:11:39.662Z,3.85
2019-04-25T15:16:40.841Z,560.80
2019-04-25T15:19:12.865Z,624.15
2019-04-25T15:21:44.779Z,440.68
2019-04-25T15:26:45.954Z,210.65
2019-04-25T15:29:17.457Z,233.05
2019-04-25T15:31:55.844Z,293.02
2019-04-25T15:34:23.150Z,457.35
2019-04-25T15:37:06.345Z,389.98
2019-04-25T15:39:55.081Z,532.33
2019-04-25T15:42:34.989Z,626.45
2019-04-25T15:45:21.321Z,523.83
2019-04-25T15:47:53.179Z,528.60
2019-04-25T15:50:26.269Z,546.42
2019-04-25T15:52:57.662Z,543.80
2019-04-25T15:55:29.068Z,443.25
2019-04-25T15:58:01.039Z,437.92
2019-04-25T16:00:35.522Z,374.90
2019-04-25T16:03:08.478Z,369.65
2019-04-25T16:05:40.988Z,352.57
2019-04-25T16:08:12.289Z,300.90
2019-04-25T16:10:44.173Z,302.45
2019-04-25T16:15:46.067Z,242.90
2019-04-25T16:18:17.342Z,232.27
2019-04-25T16:20:48.686Z,251.05
2019-04-25T16:23:20.076Z,212.57
2019-04-25T16:25:51.655Z,201.12
2019-04-25T16:28:22.836Z,188.90
2019-04-25T16:30:54.178Z,157.82
2019-04-25T16:33:25.589Z,158.03
2019-04-25T16:35:57.427Z,165.50
2019-04-25T16:40:58.624Z,125.22
2019-04-25T16:43:32.297Z,121.92
2019-04-25T16:46:04.255Z,100.25
2019-04-25T16:51:07.722Z,99.37
2019-04-25T16:53:40.050Z,78.87
2019-04-25T16:56:11.747Z,89.45
2019-04-25T16:58:43.016Z,88.22
2019-04-25T17:01:15.428Z,70.95
2019-04-25T17:03:46.712Z,72.87
2019-04-25T17:06:19.204Z,74.50
2019-04-25T17:08:50.405Z,65.22
2019-04-25T17:11:21.969Z,56.35
2019-04-25T17:14:12.431Z,52.55
2019-04-25T17:17:01.418Z,53.25
2019-04-25T17:20:49.487Z,42.38
2019-04-25T17:23:13.743Z,45.23
2019-04-25T17:25:44.925Z,47.08
2019-04-25T17:28:32.613Z,37.03
2019-04-25T17:31:20.744Z,38.05
2019-04-25T17:34:14.468Z,36.13
2019-04-25T17:36:55.222Z,36.15
2019-04-25T17:39:39.687Z,40.45
2019-04-25T17:42:11.283Z,34.30
2019-04-25T17:44:42.974Z,24.37
2019-04-25T17:47:14.893Z,26.60
2019-04-25T17:52:16.671Z,22.07
2019-04-25T17:54:48.523Z,22.05
2019-04-25T17:59:50.648Z,21.90
2019-04-25T18:02:21.831Z,24.23
2019-04-25T18:04:53.114Z,21.60
2019-04-25T18:07:24.570Z,16.75
2019-04-25T18:09:56.114Z,13.40
2019-04-25T18:12:27.377Z,16.17
2019-04-25T18:15:00.420Z,18.73
2019-04-25T18:17:32.267Z,19.55
2019-04-25T18:20:12.228Z,15.08
2019-04-25T18:23:08.772Z,14.68
2019-04-25T18:26:17.258Z,15.32
2019-04-25T18:28:50.956Z,15.25
2019-04-25T18:31:22.169Z,17.87
2019-04-25T18:33:56.382Z,13.25
2019-04-25T18:36:47.142Z,12.98
2019-04-25T18:39:26.773Z,12.80
2019-04-25T18:42:08.136Z,12.98
2019-04-25T18:44:40.007Z,12.65
2019-04-25T18:49:44.645Z,12.03
2019-04-25T18:52:41.417Z,12.63
2019-04-25T18:55:20.334Z,10.53
2019-04-25T18:57:55.246Z,258.32
2019-04-25T19:00:55.207Z,171.25
2019-04-25T19:03:44.133Z,233.17
2019-04-25T19:06:17.739Z,126.07
2019-04-25T19:08:53.465Z,97.57
2019-04-25T19:11:25.102Z,141.07
2019-04-25T19:13:56.465Z,526.73
2019-04-25T19:16:27.671Z,743.17
2019-04-25T19:18:59.550Z,617.15
2019-04-25T19:24:01.557Z,542.60
2019-04-25T19:29:03.411Z,597.87
2019-04-25T19:34:07.993Z,526.48
2019-04-25T19:36:39.191Z,479.35
2019-04-25T19:39:10.438Z,455.85
2019-04-25T19:41:47.344Z,465.28
2019-04-25T19:44:26.427Z,429.23
2019-04-25T19:47:00.526Z,408.32
2019-04-25T19:49:31.881Z,402.93
2019-04-25T19:52:03.209Z,399.45
2019-04-25T19:54:34.660Z,364.35
2019-04-25T19:57:06.144Z,345.52
2019-04-25T19:59:37.878Z,299.88
2019-04-25T20:02:24.423Z,309.70
2019-04-25T20:05:09.476Z,295.00
2019-04-25T20:07:49.517Z,257.45
2019-04-25T20:10:28.499Z,232.65
2019-04-25T20:13:00.071Z,223.85
2019-04-25T20:15:31.929Z,210.23
2019-04-25T20:18:03.383Z,196.90
2019-04-25T20:20:37.011Z,170.70
2019-04-25T20:23:08.648Z,186.60
2019-04-25T20:25:40.226Z,171.28
2019-04-25T20:28:11.536Z,131.65
2019-04-25T20:30:43.233Z,97.00
2019-04-25T20:35:45.980Z,241.05
2019-04-25T20:38:18.009Z,268.93
2019-04-25T20:40:49.587Z,325.13
2019-04-25T20:43:21.211Z,178.42
2019-04-25T20:45:52.821Z,396.32
2019-04-25T20:48:24.497Z,261.10
2019-04-25T20:50:56.574Z,131.57
2019-04-25T20:53:28.229Z,176.12
2019-04-25T20:56:00.139Z,165.82
2019-04-25T21:01:06.358Z,122.00
2019-04-25T21:03:37.999Z,103.32
2019-04-25T21:06:23.929Z,99.50
2019-04-25T21:08:55.499Z,94.83
2019-04-25T21:11:27.424Z,90.75
2019-04-25T21:16:59.576Z,85.38
2019-04-25T21:19:33.163Z,74.17
2019-04-25T21:22:05.014Z,72.53
2019-04-25T21:24:36.279Z,73.87
2019-04-25T21:27:09.540Z,66.55
2019-04-25T21:29:40.813Z,67.27
2019-04-25T21:32:14.288Z,68.42
2019-04-25T21:34:46.339Z,65.25
2019-04-25T21:37:18.238Z,65.03
2019-04-25T21:42:45.245Z,57.60
2019-04-25T21:45:16.694Z,49.20
2019-04-25T21:47:48.455Z,50.15
2019-04-25T21:50:19.934Z,44.93
2019-04-25T21:52:52.726Z,43.45
2019-04-25T21:55:24.845Z,42.88
2019-04-25T21:57:57.101Z,44.83
2019-04-25T22:00:56.556Z,38.67
2019-04-25T22:03:28.343Z,38.83
2019-04-25T22:06:00.727Z,34.85
2019-04-25T22:08:32.171Z,33.75
2019-04-25T22:11:03.726Z,29.02
2019-04-25T22:13:35.133Z,20.30
2019-04-25T22:16:07.036Z,78.70
2019-04-25T22:18:38.666Z,155.15
2019-04-25T22:21:11.178Z,292.77
2019-04-25T22:23:43.280Z,107.15
2019-04-25T22:28:45.008Z,133.37
2019-04-25T22:31:20.545Z,133.20
2019-04-25T22:34:15.282Z,125.00
2019-04-25T22:36:47.106Z,112.90
2019-04-25T22:39:18.364Z,98.27
2019-04-25T22:41:50.266Z,87.60
2019-04-25T22:44:22.856Z,89.50
2019-04-25T22:46:54.395Z,83.00
2019-04-25T22:49:25.840Z,77.53
2019-04-25T22:51:57.296Z,76.30
2019-04-25T22:54:30.150Z,69.20
2019-04-25T22:57:02.623Z,66.85
2019-04-25T22:59:35.026Z,66.33
2019-04-25T23:02:16.490Z,66.55
2019-04-25T23:05:15.869Z,68.70
2019-04-25T23:07:46.084Z,63.45
2019-04-25T23:10:17.826Z,58.05
2019-04-25T23:12:49.382Z,56.28
2019-04-25T23:15:22.584Z,51.70
2019-04-25T23:17:54.491Z,42.88
2019-04-25T23:20:27.806Z,42.30
2019-04-25T23:22:59.850Z,39.92
2019-04-25T23:25:50.613Z,36.42
2019-04-25T23:28:23.811Z,30.57
2019-04-25T23:31:13.301Z,30.08
2019-04-25T23:33:44.827Z,30.05
2019-04-25T23:38:47.402Z,25.80
2019-04-25T23:41:19.151Z,21.15
2019-04-25T23:43:50.428Z,21.68
2019-04-25T23:46:21.943Z,19.10
2019-04-25T23:48:53.823Z,18.10
2019-04-25T23:51:25.313Z,20.08
2019-04-25T23:56:27.166Z,15.98
2019-04-25T23:58:59.109Z,15.60
